sensor_id;sensor_type;location;lat;lon;timestamp;temperature;humidity
54202;DHT22;40108;53.152;5.844;2023-08-01T00:02:25;16.20;95.80
54202;DHT22;40108;53.152;5.844;2023-08-01T00:04:51;16.20;95.80
54202;DHT22;40108;53.152;5.844;2023-08-01T00:07:17;16.10;95.80
54202;DHT22;40108;53.152;5.844;2023-08-01T00:09:42;16.10;95.80
54202;DHT22;40108;53.152;5.844;2023-08-01T00:12:08;16.10;95.70
54202;DHT22;40108;53.152;5.844;2023-08-01T00:14:35;16.10;95.70
54202;DHT22;40108;53.152;5.844;2023-08-01T00:17:01;16.10;95.70
54202;DHT22;40108;53.152;5.844;2023-08-01T00:19:27;16.10;95.70
54202;DHT22;40108;53.152;5.844;2023-08-01T00:21:53;16.10;95.60
54202;DHT22;40108;53.152;5.844;2023-08-01T00:24:19;16.00;95.60
54202;DHT22;40108;53.152;5.844;2023-08-01T00:26:45;15.90;95.40
54202;DHT22;40108;53.152;5.844;2023-08-01T00:29:10;15.80;95.30
54202;DHT22;40108;53.152;5.844;2023-08-01T00:31:36;15.80;95.30
54202;DHT22;40108;53.152;5.844;2023-08-01T00:34:02;15.80;95.30
54202;DHT22;40108;53.152;5.844;2023-08-01T00:36:27;15.70;95.20
54202;DHT22;40108;53.152;5.844;2023-08-01T00:38:53;15.70;95.20
54202;DHT22;40108;53.152;5.844;2023-08-01T00:41:19;15.60;95.10
54202;DHT22;40108;53.152;5.844;2023-08-01T00:43:45;15.60;95.10
54202;DHT22;40108;53.152;5.844;2023-08-01T00:46:11;15.60;95.20
54202;DHT22;40108;53.152;5.844;2023-08-01T00:48:37;15.50;95.10
54202;DHT22;40108;53.152;5.844;2023-08-01T00:51:07;15.40;95.00
54202;DHT22;40108;53.152;5.844;2023-08-01T00:53:35;15.40;95.00
54202;DHT22;40108;53.152;5.844;2023-08-01T00:56:01;15.40;95.10
54202;DHT22;40108;53.152;5.844;2023-08-01T00:58:27;15.30;95.00
54202;DHT22;40108;53.152;5.844;2023-08-01T01:00:53;15.20;95.00
54202;DHT22;40108;53.152;5.844;2023-08-01T01:03:21;15.20;95.00
54202;DHT22;40108;53.152;5.844;2023-08-01T01:05:57;15.20;95.00
54202;DHT22;40108;53.152;5.844;2023-08-01T01:08:26;15.10;95.00
54202;DHT22;40108;53.152;5.844;2023-08-01T01:10:52;15.20;95.00
54202;DHT22;40108;53.152;5.844;2023-08-01T01:13:18;15.10;95.00
54202;DHT22;40108;53.152;5.844;2023-08-01T01:15:43;15.10;95.00
54202;DHT22;40108;53.152;5.844;2023-08-01T01:18:09;15.10;95.00
54202;DHT22;40108;53.152;5.844;2023-08-01T01:20:36;15.10;95.00
54202;DHT22;40108;53.152;5.844;2023-08-01T01:23:04;15.10;94.90
54202;DHT22;40108;53.152;5.844;2023-08-01T01:25:32;15.00;94.90
54202;DHT22;40108;53.152;5.844;2023-08-01T01:27:59;14.90;94.90
54202;DHT22;40108;53.152;5.844;2023-08-01T01:30:27;14.80;94.90
54202;DHT22;40108;53.152;5.844;2023-08-01T01:32:53;14.80;94.90
54202;DHT22;40108;53.152;5.844;2023-08-01T01:35:19;14.70;95.00
54202;DHT22;40108;53.152;5.844;2023-08-01T01:37:45;14.70;95.00
54202;DHT22;40108;53.152;5.844;2023-08-01T01:40:11;14.70;95.10
54202;DHT22;40108;53.152;5.844;2023-08-01T01:42:37;14.70;95.20
54202;DHT22;40108;53.152;5.844;2023-08-01T01:45:03;14.70;95.20
54202;DHT22;40108;53.152;5.844;2023-08-01T01:47:29;14.60;95.20
54202;DHT22;40108;53.152;5.844;2023-08-01T01:49:54;14.60;95.30
54202;DHT22;40108;53.152;5.844;2023-08-01T01:52:20;14.60;95.30
54202;DHT22;40108;53.152;5.844;2023-08-01T01:54:46;14.60;95.40
54202;DHT22;40108;53.152;5.844;2023-08-01T01:57:11;14.60;95.40
54202;DHT22;40108;53.152;5.844;2023-08-01T01:59:37;14.60;95.50
54202;DHT22;40108;53.152;5.844;2023-08-01T02:02:03;14.60;95.40
54202;DHT22;40108;53.152;5.844;2023-08-01T02:04:30;14.60;95.50
54202;DHT22;40108;53.152;5.844;2023-08-01T02:06:55;14.60;95.60
54202;DHT22;40108;53.152;5.844;2023-08-01T02:09:21;14.60;95.70
54202;DHT22;40108;53.152;5.844;2023-08-01T02:11:47;14.70;95.70
54202;DHT22;40108;53.152;5.844;2023-08-01T02:14:13;14.70;95.70
54202;DHT22;40108;53.152;5.844;2023-08-01T02:16:39;14.80;95.90
54202;DHT22;40108;53.152;5.844;2023-08-01T02:19:05;14.80;96.00
54202;DHT22;40108;53.152;5.844;2023-08-01T02:21:30;14.80;95.90
54202;DHT22;40108;53.152;5.844;2023-08-01T02:23:56;14.80;96.00
54202;DHT22;40108;53.152;5.844;2023-08-01T02:26:22;14.90;96.20
54202;DHT22;40108;53.152;5.844;2023-08-01T02:28:49;14.90;96.10
54202;DHT22;40108;53.152;5.844;2023-08-01T02:31:16;14.90;96.20
54202;DHT22;40108;53.152;5.844;2023-08-01T02:33:42;15.00;96.30
54202;DHT22;40108;53.152;5.844;2023-08-01T02:36:07;15.00;96.40
54202;DHT22;40108;53.152;5.844;2023-08-01T02:38:33;15.00;96.40
54202;DHT22;40108;53.152;5.844;2023-08-01T02:40:59;15.10;96.60
54202;DHT22;40108;53.152;5.844;2023-08-01T02:43:25;15.10;96.70
54202;DHT22;40108;53.152;5.844;2023-08-01T02:45:51;15.10;96.70
54202;DHT22;40108;53.152;5.844;2023-08-01T02:48:16;15.10;96.70
54202;DHT22;40108;53.152;5.844;2023-08-01T02:50:42;15.10;96.80
54202;DHT22;40108;53.152;5.844;2023-08-01T02:53:08;15.10;96.70
54202;DHT22;40108;53.152;5.844;2023-08-01T02:55:34;15.10;96.70
54202;DHT22;40108;53.152;5.844;2023-08-01T02:57:59;15.10;96.70
54202;DHT22;40108;53.152;5.844;2023-08-01T03:00:25;15.10;96.60
54202;DHT22;40108;53.152;5.844;2023-08-01T03:02:51;15.10;96.60
54202;DHT22;40108;53.152;5.844;2023-08-01T03:05:17;15.10;96.60
54202;DHT22;40108;53.152;5.844;2023-08-01T03:07:43;15.10;96.60
54202;DHT22;40108;53.152;5.844;2023-08-01T03:10:09;15.10;96.50
54202;DHT22;40108;53.152;5.844;2023-08-01T03:12:36;15.10;96.50
54202;DHT22;40108;53.152;5.844;2023-08-01T03:15:03;15.10;96.50
54202;DHT22;40108;53.152;5.844;2023-08-01T03:17:29;15.00;96.50
54202;DHT22;40108;53.152;5.844;2023-08-01T03:19:55;15.00;96.50
54202;DHT22;40108;53.152;5.844;2023-08-01T03:22:20;15.00;96.50
54202;DHT22;40108;53.152;5.844;2023-08-01T03:24:47;15.00;96.50
54202;DHT22;40108;53.152;5.844;2023-08-01T03:27:12;14.90;96.40
54202;DHT22;40108;53.152;5.844;2023-08-01T03:29:38;14.90;96.50
54202;DHT22;40108;53.152;5.844;2023-08-01T03:32:05;14.90;96.50
54202;DHT22;40108;53.152;5.844;2023-08-01T03:34:30;15.00;96.50
54202;DHT22;40108;53.152;5.844;2023-08-01T03:36:56;14.90;96.50
54202;DHT22;40108;53.152;5.844;2023-08-01T03:39:22;14.90;96.50
54202;DHT22;40108;53.152;5.844;2023-08-01T03:41:47;14.90;96.50
54202;DHT22;40108;53.152;5.844;2023-08-01T03:44:13;14.90;96.50
54202;DHT22;40108;53.152;5.844;2023-08-01T03:46:40;14.90;96.50
54202;DHT22;40108;53.152;5.844;2023-08-01T03:49:06;14.90;96.60
54202;DHT22;40108;53.152;5.844;2023-08-01T03:51:31;14.90;96.50
54202;DHT22;40108;53.152;5.844;2023-08-01T03:53:57;14.90;96.60
54202;DHT22;40108;53.152;5.844;2023-08-01T03:56:23;14.90;96.60
54202;DHT22;40108;53.152;5.844;2023-08-01T03:58:49;14.90;96.50
54202;DHT22;40108;53.152;5.844;2023-08-01T04:01:14;14.90;96.50
54202;DHT22;40108;53.152;5.844;2023-08-01T04:03:40;14.90;96.60
54202;DHT22;40108;53.152;5.844;2023-08-01T04:06:06;14.80;96.50
54202;DHT22;40108;53.152;5.844;2023-08-01T04:08:32;14.90;96.50
54202;DHT22;40108;53.152;5.844;2023-08-01T04:10:57;14.80;96.50
54202;DHT22;40108;53.152;5.844;2023-08-01T04:13:23;14.90;96.60
54202;DHT22;40108;53.152;5.844;2023-08-01T04:15:49;14.80;96.70
54202;DHT22;40108;53.152;5.844;2023-08-01T04:18:14;14.90;96.60
54202;DHT22;40108;53.152;5.844;2023-08-01T04:20:40;14.90;96.60
54202;DHT22;40108;53.152;5.844;2023-08-01T04:23:06;14.90;96.70
54202;DHT22;40108;53.152;5.844;2023-08-01T04:25:31;15.00;96.70
54202;DHT22;40108;53.152;5.844;2023-08-01T04:27:57;14.90;96.70
54202;DHT22;40108;53.152;5.844;2023-08-01T04:30:23;15.00;96.70
54202;DHT22;40108;53.152;5.844;2023-08-01T04:32:49;15.00;96.80
54202;DHT22;40108;53.152;5.844;2023-08-01T04:35:14;15.10;96.90
54202;DHT22;40108;53.152;5.844;2023-08-01T04:37:40;15.10;97.00
54202;DHT22;40108;53.152;5.844;2023-08-01T04:40:06;15.10;96.90
54202;DHT22;40108;53.152;5.844;2023-08-01T04:42:32;15.10;96.90
54202;DHT22;40108;53.152;5.844;2023-08-01T04:44:58;15.10;97.00
54202;DHT22;40108;53.152;5.844;2023-08-01T04:47:24;15.10;97.00
54202;DHT22;40108;53.152;5.844;2023-08-01T04:49:49;15.10;97.10
54202;DHT22;40108;53.152;5.844;2023-08-01T04:52:15;15.10;97.10
54202;DHT22;40108;53.152;5.844;2023-08-01T04:54:41;15.20;97.10
54202;DHT22;40108;53.152;5.844;2023-08-01T04:57:07;15.20;97.10
54202;DHT22;40108;53.152;5.844;2023-08-01T04:59:32;15.20;97.10
54202;DHT22;40108;53.152;5.844;2023-08-01T05:01:58;15.20;97.10
54202;DHT22;40108;53.152;5.844;2023-08-01T05:04:24;15.30;97.20
54202;DHT22;40108;53.152;5.844;2023-08-01T05:06:50;15.30;97.20
54202;DHT22;40108;53.152;5.844;2023-08-01T05:09:16;15.40;97.30
54202;DHT22;40108;53.152;5.844;2023-08-01T05:11:42;15.40;97.30
54202;DHT22;40108;53.152;5.844;2023-08-01T05:14:07;15.40;97.30
54202;DHT22;40108;53.152;5.844;2023-08-01T05:16:33;15.40;97.30
54202;DHT22;40108;53.152;5.844;2023-08-01T05:18:59;15.40;97.30
54202;DHT22;40108;53.152;5.844;2023-08-01T05:21:24;15.40;97.20
54202;DHT22;40108;53.152;5.844;2023-08-01T05:23:50;15.40;97.20
54202;DHT22;40108;53.152;5.844;2023-08-01T05:26:16;15.40;97.20
54202;DHT22;40108;53.152;5.844;2023-08-01T05:28:42;15.30;97.20
54202;DHT22;40108;53.152;5.844;2023-08-01T05:31:08;15.30;97.10
54202;DHT22;40108;53.152;5.844;2023-08-01T05:33:33;15.20;97.00
54202;DHT22;40108;53.152;5.844;2023-08-01T05:35:59;15.20;97.00
54202;DHT22;40108;53.152;5.844;2023-08-01T05:38:25;15.10;96.90
54202;DHT22;40108;53.152;5.844;2023-08-01T05:40:51;15.10;96.90
54202;DHT22;40108;53.152;5.844;2023-08-01T05:43:17;15.10;96.90
54202;DHT22;40108;53.152;5.844;2023-08-01T05:45:42;15.10;96.90
54202;DHT22;40108;53.152;5.844;2023-08-01T05:48:08;15.00;96.90
54202;DHT22;40108;53.152;5.844;2023-08-01T05:50:34;15.00;96.80
54202;DHT22;40108;53.152;5.844;2023-08-01T05:52:59;15.00;96.90
54202;DHT22;40108;53.152;5.844;2023-08-01T05:55:25;15.00;96.90
54202;DHT22;40108;53.152;5.844;2023-08-01T05:57:51;15.00;96.90
54202;DHT22;40108;53.152;5.844;2023-08-01T06:00:19;15.00;96.90
54202;DHT22;40108;53.152;5.844;2023-08-01T06:02:47;15.10;96.90
54202;DHT22;40108;53.152;5.844;2023-08-01T06:05:13;15.10;97.00
54202;DHT22;40108;53.152;5.844;2023-08-01T06:07:39;15.10;97.00
54202;DHT22;40108;53.152;5.844;2023-08-01T06:10:07;15.20;97.00
54202;DHT22;40108;53.152;5.844;2023-08-01T06:12:33;15.30;97.10
54202;DHT22;40108;53.152;5.844;2023-08-01T06:14:59;15.40;97.10
54202;DHT22;40108;53.152;5.844;2023-08-01T06:17:25;15.50;97.10
54202;DHT22;40108;53.152;5.844;2023-08-01T06:19:50;15.50;97.10
54202;DHT22;40108;53.152;5.844;2023-08-01T06:22:17;15.50;97.00
54202;DHT22;40108;53.152;5.844;2023-08-01T06:24:43;15.50;96.90
54202;DHT22;40108;53.152;5.844;2023-08-01T06:27:09;15.40;96.90
54202;DHT22;40108;53.152;5.844;2023-08-01T06:29:35;15.40;96.90
54202;DHT22;40108;53.152;5.844;2023-08-01T06:32:00;15.40;96.90
54202;DHT22;40108;53.152;5.844;2023-08-01T06:34:27;15.40;96.80
54202;DHT22;40108;53.152;5.844;2023-08-01T06:36:53;15.40;96.90
54202;DHT22;40108;53.152;5.844;2023-08-01T06:39:19;15.40;96.90
54202;DHT22;40108;53.152;5.844;2023-08-01T06:41:45;15.40;96.90
54202;DHT22;40108;53.152;5.844;2023-08-01T06:44:10;15.40;96.90
54202;DHT22;40108;53.152;5.844;2023-08-01T06:46:36;15.50;96.90
54202;DHT22;40108;53.152;5.844;2023-08-01T06:49:02;15.50;96.90
54202;DHT22;40108;53.152;5.844;2023-08-01T06:51:27;15.50;96.90
54202;DHT22;40108;53.152;5.844;2023-08-01T06:53:53;15.50;96.90
54202;DHT22;40108;53.152;5.844;2023-08-01T06:56:19;15.40;96.90
54202;DHT22;40108;53.152;5.844;2023-08-01T06:58:45;15.40;96.90
54202;DHT22;40108;53.152;5.844;2023-08-01T07:01:10;15.40;96.90
54202;DHT22;40108;53.152;5.844;2023-08-01T07:03:36;15.40;96.90
54202;DHT22;40108;53.152;5.844;2023-08-01T07:06:02;15.40;97.00
54202;DHT22;40108;53.152;5.844;2023-08-01T07:08:27;15.60;97.00
54202;DHT22;40108;53.152;5.844;2023-08-01T07:10:53;15.60;97.10
54202;DHT22;40108;53.152;5.844;2023-08-01T07:13:19;15.70;97.10
54202;DHT22;40108;53.152;5.844;2023-08-01T07:15:45;15.70;97.10
54202;DHT22;40108;53.152;5.844;2023-08-01T07:18:11;15.80;97.10
54202;DHT22;40108;53.152;5.844;2023-08-01T07:20:37;15.80;97.10
54202;DHT22;40108;53.152;5.844;2023-08-01T07:23:02;15.80;97.10
54202;DHT22;40108;53.152;5.844;2023-08-01T07:25:28;15.80;97.10
54202;DHT22;40108;53.152;5.844;2023-08-01T07:27:54;15.80;97.10
54202;DHT22;40108;53.152;5.844;2023-08-01T07:30:19;15.70;97.00
54202;DHT22;40108;53.152;5.844;2023-08-01T07:32:45;15.60;97.00
54202;DHT22;40108;53.152;5.844;2023-08-01T07:35:13;15.60;97.00
54202;DHT22;40108;53.152;5.844;2023-08-01T07:37:39;15.60;97.00
54202;DHT22;40108;53.152;5.844;2023-08-01T07:40:06;15.60;97.00
54202;DHT22;40108;53.152;5.844;2023-08-01T07:42:32;15.50;97.00
54202;DHT22;40108;53.152;5.844;2023-08-01T07:44:57;15.50;97.00
54202;DHT22;40108;53.152;5.844;2023-08-01T07:47:23;15.50;97.00
54202;DHT22;40108;53.152;5.844;2023-08-01T07:49:52;15.40;97.00
54202;DHT22;40108;53.152;5.844;2023-08-01T07:52:18;15.50;97.00
54202;DHT22;40108;53.152;5.844;2023-08-01T07:54:46;15.60;97.20
54202;DHT22;40108;53.152;5.844;2023-08-01T07:57:12;15.60;97.30
54202;DHT22;40108;53.152;5.844;2023-08-01T07:59:38;15.70;97.20
54202;DHT22;40108;53.152;5.844;2023-08-01T08:02:03;15.70;97.30
54202;DHT22;40108;53.152;5.844;2023-08-01T08:04:29;15.90;97.40
54202;DHT22;40108;53.152;5.844;2023-08-01T08:06:55;16.10;97.50
54202;DHT22;40108;53.152;5.844;2023-08-01T08:09:25;16.20;97.40
54202;DHT22;40108;53.152;5.844;2023-08-01T08:11:51;16.20;97.30
54202;DHT22;40108;53.152;5.844;2023-08-01T08:14:17;16.20;97.30
54202;DHT22;40108;53.152;5.844;2023-08-01T08:16:43;16.40;97.30
54202;DHT22;40108;53.152;5.844;2023-08-01T08:19:08;16.50;97.20
54202;DHT22;40108;53.152;5.844;2023-08-01T08:21:34;16.60;97.20
54202;DHT22;40108;53.152;5.844;2023-08-01T08:24:00;16.70;97.00
54202;DHT22;40108;53.152;5.844;2023-08-01T08:26:26;16.70;96.90
54202;DHT22;40108;53.152;5.844;2023-08-01T08:28:52;17.00;97.00
54202;DHT22;40108;53.152;5.844;2023-08-01T08:31:18;17.40;97.00
54202;DHT22;40108;53.152;5.844;2023-08-01T08:33:43;17.60;96.70
54202;DHT22;40108;53.152;5.844;2023-08-01T08:36:09;17.70;96.40
54202;DHT22;40108;53.152;5.844;2023-08-01T08:38:35;17.70;96.10
54202;DHT22;40108;53.152;5.844;2023-08-01T08:41:13;17.80;95.60
54202;DHT22;40108;53.152;5.844;2023-08-01T08:43:39;17.80;95.00
54202;DHT22;40108;53.152;5.844;2023-08-01T08:46:08;17.70;94.30
54202;DHT22;40108;53.152;5.844;2023-08-01T08:48:35;17.70;94.40
54202;DHT22;40108;53.152;5.844;2023-08-01T08:51:03;17.90;93.80
54202;DHT22;40108;53.152;5.844;2023-08-01T08:53:31;17.80;92.90
54202;DHT22;40108;53.152;5.844;2023-08-01T08:55:59;17.60;92.10
54202;DHT22;40108;53.152;5.844;2023-08-01T08:58:25;17.60;91.80
54202;DHT22;40108;53.152;5.844;2023-08-01T09:00:51;17.60;92.30
54202;DHT22;40108;53.152;5.844;2023-08-01T09:03:17;17.80;92.20
54202;DHT22;40108;53.152;5.844;2023-08-01T09:05:50;18.00;91.70
54202;DHT22;40108;53.152;5.844;2023-08-01T09:08:21;18.10;91.60
54202;DHT22;40108;53.152;5.844;2023-08-01T09:10:47;18.10;90.90
54202;DHT22;40108;53.152;5.844;2023-08-01T09:13:14;18.10;90.90
54202;DHT22;40108;53.152;5.844;2023-08-01T09:15:41;18.20;91.00
54202;DHT22;40108;53.152;5.844;2023-08-01T09:18:10;18.10;91.10
54202;DHT22;40108;53.152;5.844;2023-08-01T09:20:45;18.00;91.00
54202;DHT22;40108;53.152;5.844;2023-08-01T09:23:12;17.80;91.20
54202;DHT22;40108;53.152;5.844;2023-08-01T09:25:38;17.70;91.70
54202;DHT22;40108;53.152;5.844;2023-08-01T09:28:22;17.80;91.60
54202;DHT22;40108;53.152;5.844;2023-08-01T09:30:52;17.80;91.80
54202;DHT22;40108;53.152;5.844;2023-08-01T09:33:19;18.00;92.10
54202;DHT22;40108;53.152;5.844;2023-08-01T09:35:45;18.10;91.60
54202;DHT22;40108;53.152;5.844;2023-08-01T09:38:14;18.10;90.80
54202;DHT22;40108;53.152;5.844;2023-08-01T09:40:44;18.10;90.60
54202;DHT22;40108;53.152;5.844;2023-08-01T09:43:11;18.20;90.20
54202;DHT22;40108;53.152;5.844;2023-08-01T09:45:37;18.40;89.10
54202;DHT22;40108;53.152;5.844;2023-08-01T09:48:03;18.60;89.50
54202;DHT22;40108;53.152;5.844;2023-08-01T09:50:29;18.90;89.70
54202;DHT22;40108;53.152;5.844;2023-08-01T09:52:54;19.00;86.80
54202;DHT22;40108;53.152;5.844;2023-08-01T09:55:32;19.00;86.40
54202;DHT22;40108;53.152;5.844;2023-08-01T09:57:59;19.00;86.70
54202;DHT22;40108;53.152;5.844;2023-08-01T10:00:26;18.80;85.90
54202;DHT22;40108;53.152;5.844;2023-08-01T10:02:52;18.60;86.10
54202;DHT22;40108;53.152;5.844;2023-08-01T10:05:19;18.50;85.80
54202;DHT22;40108;53.152;5.844;2023-08-01T10:07:47;18.70;86.30
54202;DHT22;40108;53.152;5.844;2023-08-01T10:10:15;19.00;84.90
54202;DHT22;40108;53.152;5.844;2023-08-01T10:12:45;19.20;84.10
54202;DHT22;40108;53.152;5.844;2023-08-01T10:15:11;19.30;82.40
54202;DHT22;40108;53.152;5.844;2023-08-01T10:17:37;19.40;83.60
54202;DHT22;40108;53.152;5.844;2023-08-01T10:20:03;19.60;84.50
54202;DHT22;40108;53.152;5.844;2023-08-01T10:22:30;19.80;82.80
54202;DHT22;40108;53.152;5.844;2023-08-01T10:24:57;19.80;81.20
54202;DHT22;40108;53.152;5.844;2023-08-01T10:27:23;20.00;83.00
54202;DHT22;40108;53.152;5.844;2023-08-01T10:30:01;20.20;81.60
54202;DHT22;40108;53.152;5.844;2023-08-01T10:32:36;20.30;80.50
54202;DHT22;40108;53.152;5.844;2023-08-01T10:35:03;20.10;80.00
54202;DHT22;40108;53.152;5.844;2023-08-01T10:37:47;20.10;80.60
54202;DHT22;40108;53.152;5.844;2023-08-01T10:40:13;20.20;80.40
54202;DHT22;40108;53.152;5.844;2023-08-01T10:42:40;20.30;79.20
54202;DHT22;40108;53.152;5.844;2023-08-01T10:45:07;20.40;78.80
54202;DHT22;40108;53.152;5.844;2023-08-01T10:47:33;20.50;78.00
54202;DHT22;40108;53.152;5.844;2023-08-01T10:50:00;20.40;77.90
54202;DHT22;40108;53.152;5.844;2023-08-01T10:52:27;20.20;77.80
54202;DHT22;40108;53.152;5.844;2023-08-01T10:55:00;20.10;78.50
54202;DHT22;40108;53.152;5.844;2023-08-01T10:57:30;20.10;79.00
54202;DHT22;40108;53.152;5.844;2023-08-01T10:59:57;20.10;79.60
54202;DHT22;40108;53.152;5.844;2023-08-01T11:02:24;20.00;78.20
54202;DHT22;40108;53.152;5.844;2023-08-01T11:05:05;19.80;78.70
54202;DHT22;40108;53.152;5.844;2023-08-01T11:07:31;20.00;80.30
54202;DHT22;40108;53.152;5.844;2023-08-01T11:12:30;19.90;79.20
54202;DHT22;40108;53.152;5.844;2023-08-01T11:15:00;19.60;80.50
54202;DHT22;40108;53.152;5.844;2023-08-01T11:17:26;19.50;82.00
54202;DHT22;40108;53.152;5.844;2023-08-01T11:19:51;19.60;83.10
54202;DHT22;40108;53.152;5.844;2023-08-01T11:22:25;19.80;83.50
54202;DHT22;40108;53.152;5.844;2023-08-01T11:24:51;19.80;83.10
54202;DHT22;40108;53.152;5.844;2023-08-01T11:27:16;19.70;82.20
54202;DHT22;40108;53.152;5.844;2023-08-01T11:29:43;19.60;81.10
54202;DHT22;40108;53.152;5.844;2023-08-01T11:32:09;19.50;81.30
54202;DHT22;40108;53.152;5.844;2023-08-01T11:34:41;19.30;81.20
54202;DHT22;40108;53.152;5.844;2023-08-01T11:37:10;19.10;81.50
54202;DHT22;40108;53.152;5.844;2023-08-01T11:39:36;19.20;81.40
54202;DHT22;40108;53.152;5.844;2023-08-01T11:42:02;19.50;81.10
54202;DHT22;40108;53.152;5.844;2023-08-01T11:44:29;19.60;80.90
54202;DHT22;40108;53.152;5.844;2023-08-01T11:46:55;19.80;78.30
54202;DHT22;40108;53.152;5.844;2023-08-01T11:49:21;20.10;78.90
54202;DHT22;40108;53.152;5.844;2023-08-01T11:51:47;20.50;78.60
54202;DHT22;40108;53.152;5.844;2023-08-01T11:54:13;20.80;78.30
54202;DHT22;40108;53.152;5.844;2023-08-01T11:56:41;21.10;76.90
54202;DHT22;40108;53.152;5.844;2023-08-01T11:59:15;21.10;75.60
54202;DHT22;40108;53.152;5.844;2023-08-01T12:01:42;21.20;75.70
54202;DHT22;40108;53.152;5.844;2023-08-01T12:04:08;21.30;76.40
54202;DHT22;40108;53.152;5.844;2023-08-01T12:06:35;21.40;75.80
54202;DHT22;40108;53.152;5.844;2023-08-01T12:09:13;21.50;75.40
54202;DHT22;40108;53.152;5.844;2023-08-01T12:11:40;21.40;73.10
54202;DHT22;40108;53.152;5.844;2023-08-01T12:14:08;21.20;73.00
54202;DHT22;40108;53.152;5.844;2023-08-01T12:16:38;21.00;73.80
54202;DHT22;40108;53.152;5.844;2023-08-01T12:19:04;20.60;74.80
54202;DHT22;40108;53.152;5.844;2023-08-01T12:21:32;20.30;76.00
54202;DHT22;40108;53.152;5.844;2023-08-01T12:23:58;20.10;77.70
54202;DHT22;40108;53.152;5.844;2023-08-01T12:26:24;20.10;79.10
54202;DHT22;40108;53.152;5.844;2023-08-01T12:28:50;19.90;77.50
54202;DHT22;40108;53.152;5.844;2023-08-01T12:31:21;19.80;77.70
54202;DHT22;40108;53.152;5.844;2023-08-01T12:33:47;19.60;79.00
54202;DHT22;40108;53.152;5.844;2023-08-01T12:36:13;19.40;81.30
54202;DHT22;40108;53.152;5.844;2023-08-01T12:38:39;19.30;82.70
54202;DHT22;40108;53.152;5.844;2023-08-01T12:41:06;19.30;83.90
54202;DHT22;40108;53.152;5.844;2023-08-01T12:43:31;19.40;83.50
54202;DHT22;40108;53.152;5.844;2023-08-01T12:45:57;19.50;83.50
54202;DHT22;40108;53.152;5.844;2023-08-01T12:48:27;19.50;82.30
54202;DHT22;40108;53.152;5.844;2023-08-01T12:50:52;19.60;82.40
54202;DHT22;40108;53.152;5.844;2023-08-01T12:53:19;19.80;82.90
54202;DHT22;40108;53.152;5.844;2023-08-01T12:55:49;20.00;82.20
54202;DHT22;40108;53.152;5.844;2023-08-01T12:58:16;20.10;81.20
54202;DHT22;40108;53.152;5.844;2023-08-01T13:00:43;19.90;82.10
54202;DHT22;40108;53.152;5.844;2023-08-01T13:03:10;19.90;82.50
54202;DHT22;40108;53.152;5.844;2023-08-01T13:05:37;20.00;83.10
54202;DHT22;40108;53.152;5.844;2023-08-01T13:08:03;20.10;81.30
54202;DHT22;40108;53.152;5.844;2023-08-01T13:10:33;20.10;79.90
54202;DHT22;40108;53.152;5.844;2023-08-01T13:13:00;20.10;79.60
54202;DHT22;40108;53.152;5.844;2023-08-01T13:15:26;20.10;78.50
54202;DHT22;40108;53.152;5.844;2023-08-01T13:17:52;19.90;79.30
54202;DHT22;40108;53.152;5.844;2023-08-01T13:20:18;19.80;80.10
54202;DHT22;40108;53.152;5.844;2023-08-01T13:22:49;19.70;80.50
54202;DHT22;40108;53.152;5.844;2023-08-01T13:25:16;19.70;81.00
54202;DHT22;40108;53.152;5.844;2023-08-01T13:27:42;19.60;79.40
54202;DHT22;40108;53.152;5.844;2023-08-01T13:30:09;19.60;79.50
54202;DHT22;40108;53.152;5.844;2023-08-01T13:32:35;19.60;80.00
54202;DHT22;40108;53.152;5.844;2023-08-01T13:35:01;19.60;80.00
54202;DHT22;40108;53.152;5.844;2023-08-01T13:37:27;19.60;81.40
54202;DHT22;40108;53.152;5.844;2023-08-01T13:39:57;19.40;82.00
54202;DHT22;40108;53.152;5.844;2023-08-01T13:42:23;19.20;83.30
54202;DHT22;40108;53.152;5.844;2023-08-01T13:44:48;19.30;83.90
54202;DHT22;40108;53.152;5.844;2023-08-01T13:47:14;19.20;84.80
54202;DHT22;40108;53.152;5.844;2023-08-01T13:49:40;19.30;83.90
54202;DHT22;40108;53.152;5.844;2023-08-01T13:52:06;19.20;84.00
54202;DHT22;40108;53.152;5.844;2023-08-01T13:54:32;18.90;84.10
54202;DHT22;40108;53.152;5.844;2023-08-01T13:56:57;18.60;85.30
54202;DHT22;40108;53.152;5.844;2023-08-01T13:59:23;18.30;86.00
54202;DHT22;40108;53.152;5.844;2023-08-01T14:01:49;18.10;87.20
54202;DHT22;40108;53.152;5.844;2023-08-01T14:04:15;18.10;87.60
54202;DHT22;40108;53.152;5.844;2023-08-01T14:06:41;18.10;88.00
54202;DHT22;40108;53.152;5.844;2023-08-01T14:09:10;18.10;88.50
54202;DHT22;40108;53.152;5.844;2023-08-01T14:11:36;18.10;88.70
54202;DHT22;40108;53.152;5.844;2023-08-01T14:14:02;18.20;88.70
54202;DHT22;40108;53.152;5.844;2023-08-01T14:16:29;18.20;88.20
54202;DHT22;40108;53.152;5.844;2023-08-01T14:18:54;18.30;87.90
54202;DHT22;40108;53.152;5.844;2023-08-01T14:21:20;18.20;87.80
54202;DHT22;40108;53.152;5.844;2023-08-01T14:23:46;18.20;87.50
54202;DHT22;40108;53.152;5.844;2023-08-01T14:26:12;18.20;87.40
54202;DHT22;40108;53.152;5.844;2023-08-01T14:28:37;18.10;87.70
54202;DHT22;40108;53.152;5.844;2023-08-01T14:31:04;18.10;88.30
54202;DHT22;40108;53.152;5.844;2023-08-01T14:33:30;18.10;88.90
54202;DHT22;40108;53.152;5.844;2023-08-01T14:35:56;18.00;89.10
54202;DHT22;40108;53.152;5.844;2023-08-01T14:38:22;18.00;88.50
54202;DHT22;40108;53.152;5.844;2023-08-01T14:40:48;17.90;88.70
54202;DHT22;40108;53.152;5.844;2023-08-01T14:43:14;17.90;88.70
54202;DHT22;40108;53.152;5.844;2023-08-01T14:45:41;18.00;89.00
54202;DHT22;40108;53.152;5.844;2023-08-01T14:48:07;17.90;88.60
54202;DHT22;40108;53.152;5.844;2023-08-01T14:50:34;17.90;88.10
54202;DHT22;40108;53.152;5.844;2023-08-01T14:53:00;17.90;87.90
54202;DHT22;40108;53.152;5.844;2023-08-01T14:55:28;18.00;88.30
54202;DHT22;40108;53.152;5.844;2023-08-01T14:57:54;18.10;88.30
54202;DHT22;40108;53.152;5.844;2023-08-01T15:00:20;18.10;88.10
54202;DHT22;40108;53.152;5.844;2023-08-01T15:02:46;18.20;87.90
54202;DHT22;40108;53.152;5.844;2023-08-01T15:05:13;18.30;87.60
54202;DHT22;40108;53.152;5.844;2023-08-01T15:07:39;18.40;87.20
54202;DHT22;40108;53.152;5.844;2023-08-01T15:10:05;18.40;86.60
54202;DHT22;40108;53.152;5.844;2023-08-01T15:12:31;18.40;85.20
54202;DHT22;40108;53.152;5.844;2023-08-01T15:14:57;18.30;85.10
54202;DHT22;40108;53.152;5.844;2023-08-01T15:17:23;18.40;85.20
54202;DHT22;40108;53.152;5.844;2023-08-01T15:19:49;18.30;84.50
54202;DHT22;40108;53.152;5.844;2023-08-01T15:22:16;18.30;84.70
54202;DHT22;40108;53.152;5.844;2023-08-01T15:24:42;18.30;85.00
54202;DHT22;40108;53.152;5.844;2023-08-01T15:27:08;18.40;85.10
54202;DHT22;40108;53.152;5.844;2023-08-01T15:29:34;18.30;84.90